createdAt,value
2023-05-05T00:01:02.632Z,18.50
2023-05-05T00:03:30.402Z,18.48
2023-05-05T00:05:58.310Z,18.48
2023-05-05T00:08:26.021Z,18.45
2023-05-05T00:10:54.050Z,18.46
2023-05-05T00:13:22.404Z,18.41
2023-05-05T00:15:51.537Z,18.44
2023-05-05T00:18:20.007Z,18.45
2023-05-05T00:20:48.780Z,18.44
2023-05-05T00:23:17.790Z,18.45
2023-05-05T00:25:45.589Z,18.46
2023-05-05T00:28:14.484Z,18.47
2023-05-05T00:30:42.427Z,18.42
2023-05-05T00:33:11.645Z,18.43
2023-05-05T00:35:39.310Z,18.42
2023-05-05T00:38:07.396Z,18.37
2023-05-05T00:40:35.280Z,18.40
2023-05-05T00:43:03.067Z,18.38
2023-05-05T00:45:30.995Z,18.38
2023-05-05T00:48:00.314Z,18.39
2023-05-05T00:50:30.753Z,18.39
2023-05-05T00:53:02.688Z,18.37
2023-05-05T00:55:31.715Z,18.35
2023-05-05T00:58:01.254Z,18.33
2023-05-05T01:00:29.184Z,18.31
2023-05-05T01:02:57.122Z,18.29
2023-05-05T01:05:28.262Z,18.26
2023-05-05T01:08:34.783Z,18.51
2023-05-05T01:11:17.572Z,18.42
2023-05-05T01:14:24.833Z,18.58
2023-05-05T01:16:58.235Z,18.38
2023-05-05T01:19:48.774Z,18.51
2023-05-05T01:22:20.870Z,18.50
2023-05-05T01:25:27.418Z,18.80
2023-05-05T01:28:24.678Z,19.05
2023-05-05T01:31:30.410Z,19.11
2023-05-05T01:34:05.872Z,18.96
2023-05-05T01:36:39.234Z,18.84
2023-05-05T01:39:12.549Z,18.76
2023-05-05T01:41:43.521Z,18.70
2023-05-05T01:44:13.938Z,18.66
2023-05-05T01:46:41.575Z,18.58
2023-05-05T01:49:11.427Z,18.68
2023-05-05T01:51:41.813Z,18.74
2023-05-05T01:54:09.962Z,18.69
2023-05-05T01:56:40.652Z,18.76
2023-05-05T01:59:10.848Z,18.80
2023-05-05T02:01:41.922Z,18.80
2023-05-05T02:04:10.604Z,18.73
2023-05-05T02:06:40.573Z,18.77
2023-05-05T02:09:12.483Z,18.79
2023-05-05T02:11:40.958Z,18.73
2023-05-05T02:14:11.136Z,18.75
2023-05-05T02:16:41.580Z,18.82
2023-05-05T02:19:09.377Z,18.81
2023-05-05T02:21:36.980Z,18.85
2023-05-05T02:24:07.685Z,18.92
2023-05-05T02:26:39.014Z,19.04
2023-05-05T02:29:10.895Z,19.12
2023-05-05T02:31:45.638Z,19.26
2023-05-05T02:34:24.990Z,19.32
2023-05-05T02:36:57.586Z,19.35
2023-05-05T02:39:45.968Z,19.46
2023-05-05T02:42:22.296Z,19.45
2023-05-05T02:44:54.188Z,19.49
2023-05-05T02:47:22.348Z,19.60
2023-05-05T02:49:52.520Z,19.71
2023-05-05T02:52:20.161Z,19.78
2023-05-05T02:54:48.397Z,19.88
2023-05-05T02:57:21.478Z,20.04
2023-05-05T03:00:09.934Z,20.19
2023-05-05T03:03:05.743Z,20.31
2023-05-05T03:05:47.755Z,20.45
2023-05-05T03:08:20.937Z,20.56
2023-05-05T03:11:06.352Z,20.68
2023-05-05T03:13:40.918Z,20.78
2023-05-05T03:16:09.888Z,20.95
2023-05-05T03:18:38.919Z,21.22
2023-05-05T03:21:10.583Z,21.74
2023-05-05T03:23:41.178Z,22.33
2023-05-05T03:26:19.645Z,22.54
2023-05-05T03:28:48.086Z,22.89
2023-05-05T03:31:23.720Z,23.19
2023-05-05T03:33:55.231Z,23.39
2023-05-05T03:36:27.830Z,23.56
2023-05-05T03:38:58.432Z,23.54
2023-05-05T03:41:29.869Z,23.68
2023-05-05T03:43:57.661Z,23.81
2023-05-05T03:46:25.883Z,24.07
2023-05-05T03:48:57.370Z,24.43
2023-05-05T03:51:27.254Z,24.85
2023-05-05T03:53:55.411Z,25.16
2023-05-05T03:56:23.356Z,25.62
2023-05-05T03:58:52.890Z,26.10
2023-05-05T04:01:20.405Z,26.40
2023-05-05T04:03:48.228Z,27.01
2023-05-05T04:06:15.885Z,27.57
2023-05-05T04:08:43.368Z,28.08
2023-05-05T04:11:11.069Z,28.53
2023-05-05T04:13:39.485Z,28.97
2023-05-05T04:16:09.130Z,29.09
2023-05-05T04:18:38.055Z,29.56
2023-05-05T04:21:05.934Z,29.67
2023-05-05T04:23:33.606Z,30.15
2023-05-05T04:26:01.320Z,30.65
2023-05-05T04:28:29.013Z,31.13
2023-05-05T04:30:56.582Z,31.68
2023-05-05T04:33:24.578Z,32.34
2023-05-05T04:35:52.239Z,32.89
2023-05-05T04:38:21.377Z,33.18
2023-05-05T04:40:49.553Z,33.40
2023-05-05T04:43:17.607Z,33.40
2023-05-05T04:45:56.819Z,32.96
2023-05-05T04:48:28.846Z,33.43
2023-05-05T04:50:56.408Z,33.45
2023-05-05T04:53:23.976Z,33.45
2023-05-05T04:55:51.519Z,33.70
2023-05-05T04:58:19.026Z,33.87
2023-05-05T05:00:46.831Z,34.40
2023-05-05T05:03:14.423Z,34.69
2023-05-05T05:05:42.067Z,34.67
2023-05-05T05:08:09.612Z,34.74
2023-05-05T05:10:37.459Z,34.74
2023-05-05T05:13:05.048Z,34.75
2023-05-05T05:15:32.602Z,34.93
2023-05-05T05:18:00.320Z,34.85
2023-05-05T05:20:30.121Z,35.06
2023-05-05T05:22:58.140Z,35.14
2023-05-05T05:25:25.637Z,35.43
2023-05-05T05:28:08.424Z,35.53
2023-05-05T05:30:40.982Z,35.46
2023-05-05T05:33:10.303Z,35.71
2023-05-05T05:35:37.872Z,36.13
2023-05-05T05:38:05.585Z,36.45
2023-05-05T05:40:33.238Z,36.80
2023-05-05T05:43:00.777Z,37.10
2023-05-05T05:45:29.071Z,37.20
2023-05-05T05:47:57.210Z,37.13
2023-05-05T05:50:27.530Z,37.08
2023-05-05T05:52:56.637Z,36.68
2023-05-05T05:55:24.687Z,36.52
2023-05-05T05:57:53.513Z,36.66
2023-05-05T06:00:21.531Z,36.66
2023-05-05T06:02:56.091Z,36.73
2023-05-05T06:05:27.288Z,37.07
2023-05-05T06:07:55.388Z,37.10
2023-05-05T06:10:28.377Z,37.50
2023-05-05T06:13:09.654Z,37.83
2023-05-05T06:15:41.171Z,37.82
2023-05-05T06:18:08.923Z,37.93
2023-05-05T06:20:36.466Z,37.80
2023-05-05T06:23:03.999Z,37.54
2023-05-05T06:25:33.919Z,38.16
2023-05-05T06:28:01.424Z,38.51
2023-05-05T06:30:29.200Z,38.32
2023-05-05T06:32:56.834Z,38.44
2023-05-05T06:35:24.975Z,38.48
2023-05-05T06:37:52.438Z,38.53
2023-05-05T06:40:19.898Z,38.47
2023-05-05T06:42:47.419Z,38.23
2023-05-05T06:45:21.212Z,38.03
2023-05-05T06:47:49.554Z,37.74
2023-05-05T06:50:17.351Z,37.59
2023-05-05T06:52:44.830Z,37.37
2023-05-05T06:55:12.434Z,37.36
2023-05-05T06:57:39.908Z,37.10
2023-05-05T07:00:11.581Z,36.97
2023-05-05T07:02:39.190Z,36.45
2023-05-05T07:05:06.977Z,36.15
2023-05-05T07:07:34.577Z,36.04
2023-05-05T07:10:02.106Z,35.86
2023-05-05T07:12:33.641Z,35.51
2023-05-05T07:15:09.403Z,35.49
2023-05-05T07:17:43.271Z,35.78
2023-05-05T07:20:12.319Z,35.76
2023-05-05T07:22:39.946Z,35.73
2023-05-05T07:25:08.027Z,35.83
2023-05-05T07:27:37.518Z,35.58
2023-05-05T07:30:10.145Z,35.45
2023-05-05T07:32:40.066Z,35.23
2023-05-05T07:35:07.840Z,35.06
2023-05-05T07:37:35.402Z,34.99
2023-05-05T07:40:02.860Z,34.69
2023-05-05T07:42:30.463Z,34.55
2023-05-05T07:44:57.957Z,34.44
2023-05-05T07:47:25.592Z,34.28
2023-05-05T07:49:53.131Z,33.98
2023-05-05T07:52:30.033Z,33.80
2023-05-05T07:55:05.454Z,33.44
2023-05-05T07:57:33.360Z,33.28
2023-05-05T08:00:00.902Z,33.30
2023-05-05T08:02:28.436Z,33.35
2023-05-05T08:04:56.120Z,33.81
2023-05-05T08:07:23.683Z,33.35
2023-05-05T08:09:51.097Z,33.00
2023-05-05T08:12:19.523Z,32.72
2023-05-05T08:14:47.092Z,32.66
2023-05-05T08:17:14.483Z,32.31
2023-05-05T08:19:42.142Z,32.34
2023-05-05T08:22:09.518Z,32.15
2023-05-05T08:24:37.019Z,31.99
2023-05-05T08:27:04.691Z,32.07
2023-05-05T08:29:32.151Z,31.94
2023-05-05T08:31:59.756Z,31.85
2023-05-05T08:34:27.369Z,31.44
2023-05-05T08:36:55.013Z,31.18
2023-05-05T08:39:22.808Z,30.98
2023-05-05T08:41:50.450Z,30.91
2023-05-05T08:44:18.139Z,30.64
2023-05-05T08:46:46.517Z,29.76
2023-05-05T08:49:16.536Z,30.13
2023-05-05T08:51:46.346Z,29.73
2023-05-05T08:54:20.316Z,29.68
2023-05-05T08:56:51.595Z,29.85
2023-05-05T08:59:25.375Z,29.54
2023-05-05T09:01:54.485Z,29.63
2023-05-05T09:04:22.364Z,29.50
2023-05-05T09:06:50.232Z,29.44
2023-05-05T09:09:18.011Z,29.41
2023-05-05T09:11:46.367Z,29.28
2023-05-05T09:14:13.961Z,29.26
2023-05-05T09:16:44.484Z,29.25
2023-05-05T09:19:12.100Z,29.18
2023-05-05T09:21:50.774Z,29.29
2023-05-05T09:24:19.009Z,29.10
2023-05-05T09:26:47.832Z,28.94
2023-05-05T09:29:23.006Z,29.29
2023-05-05T09:32:09.219Z,29.39
2023-05-05T09:34:37.596Z,28.96
2023-05-05T09:37:06.347Z,28.83
2023-05-05T09:39:34.141Z,28.74
2023-05-05T09:42:03.411Z,28.64
2023-05-05T09:44:36.267Z,28.69
2023-05-05T09:47:09.370Z,28.49
2023-05-05T09:49:42.719Z,28.50
2023-05-05T09:52:15.765Z,28.63
2023-05-05T09:54:43.937Z,29.01
2023-05-05T09:57:33.256Z,28.88
2023-05-05T10:00:02.646Z,28.44
2023-05-05T10:02:38.792Z,28.24
2023-05-05T10:05:08.340Z,27.55
2023-05-05T10:07:37.258Z,27.74
2023-05-05T10:10:07.444Z,27.98
2023-05-05T10:12:38.839Z,28.02
2023-05-05T10:15:08.388Z,27.86
2023-05-05T10:18:05.198Z,27.91
2023-05-05T10:20:36.664Z,27.71
2023-05-05T10:23:07.293Z,27.67
2023-05-05T10:25:47.537Z,27.71
2023-05-05T10:28:22.861Z,27.62
2023-05-05T10:30:53.530Z,27.53
2023-05-05T10:33:32.042Z,27.57
2023-05-05T10:36:06.473Z,27.61
2023-05-05T10:38:34.655Z,27.47
2023-05-05T10:41:02.457Z,27.42
2023-05-05T10:43:31.715Z,27.50
2023-05-05T10:46:00.833Z,27.43
2023-05-05T10:48:35.858Z,27.61
2023-05-05T10:51:38.410Z,27.88
2023-05-05T10:54:17.515Z,27.58
2023-05-05T10:56:46.987Z,27.42
2023-05-05T10:59:39.767Z,27.75
2023-05-05T11:02:30.315Z,27.09
2023-05-05T11:05:07.414Z,27.02
2023-05-05T11:07:35.686Z,26.82
2023-05-05T11:10:06.163Z,26.94
2023-05-05T11:13:00.399Z,27.06
2023-05-05T11:15:27.929Z,26.73
2023-05-05T11:18:05.782Z,26.66
2023-05-05T11:20:40.737Z,26.76
2023-05-05T11:23:08.328Z,26.64
2023-05-05T11:25:42.284Z,26.60
2023-05-05T11:28:25.921Z,26.67
2023-05-05T11:30:57.533Z,26.80
2023-05-05T11:33:30.814Z,26.78
2023-05-05T11:36:06.025Z,26.71
2023-05-05T11:38:59.189Z,26.52
2023-05-05T11:41:45.492Z,26.43
2023-05-05T11:44:14.025Z,26.29
2023-05-05T11:47:04.701Z,26.52
2023-05-05T11:49:33.898Z,26.30
2023-05-05T11:52:13.058Z,26.41
2023-05-05T11:54:50.933Z,26.37
2023-05-05T11:57:23.707Z,26.30
2023-05-05T12:00:01.539Z,26.41
2023-05-05T12:02:40.901Z,26.43
2023-05-05T12:05:08.982Z,26.40
2023-05-05T12:07:36.867Z,26.38
2023-05-05T12:10:04.754Z,26.44
2023-05-05T12:12:40.415Z,26.62
2023-05-05T12:15:09.666Z,26.21
2023-05-05T12:17:40.151Z,26.30
2023-05-05T12:20:09.278Z,26.22
2023-05-05T12:22:37.325Z,26.42
2023-05-05T12:25:06.883Z,26.45
2023-05-05T12:27:35.686Z,26.14
2023-05-05T12:30:13.088Z,26.06
2023-05-05T12:32:40.907Z,25.84
2023-05-05T12:35:09.965Z,25.70
2023-05-05T12:37:38.426Z,25.63
2023-05-05T12:40:07.678Z,25.55
2023-05-05T12:42:39.573Z,25.92
2023-05-05T12:45:17.722Z,25.71
2023-05-05T12:47:45.666Z,25.58
2023-05-05T12:50:13.370Z,25.50
2023-05-05T12:52:45.382Z,25.57
2023-05-05T12:55:13.063Z,25.52
2023-05-05T12:58:01.110Z,25.66
2023-05-05T13:00:29.461Z,25.37
2023-05-05T13:02:57.417Z,25.28
2023-05-05T13:05:43.072Z,25.53
2023-05-05T13:08:10.614Z,25.20
2023-05-05T13:10:40.249Z,25.19
2023-05-05T13:13:09.048Z,25.08
2023-05-05T13:15:36.964Z,25.13
2023-05-05T13:18:06.399Z,24.99
2023-05-05T13:20:34.007Z,25.01
2023-05-05T13:23:01.645Z,25.02
2023-05-05T13:25:29.266Z,24.95
2023-05-05T13:27:56.790Z,24.88
2023-05-05T13:30:24.608Z,24.80
2023-05-05T13:32:52.326Z,24.73
2023-05-05T13:35:20.830Z,24.66
2023-05-05T13:37:49.748Z,24.60
2023-05-05T13:40:17.330Z,24.58
2023-05-05T13:42:45.116Z,24.63
2023-05-05T13:45:14.418Z,24.68
2023-05-05T13:47:44.724Z,24.63
2023-05-05T13:50:12.692Z,24.56
2023-05-05T13:52:40.322Z,24.57
2023-05-05T13:55:08.704Z,24.50
2023-05-05T13:57:36.493Z,24.46
2023-05-05T14:00:04.714Z,24.35
2023-05-05T14:02:34.961Z,24.30
2023-05-05T14:05:02.688Z,24.26
2023-05-05T14:07:31.075Z,24.15
2023-05-05T14:09:58.597Z,24.15
2023-05-05T14:12:26.736Z,24.03
2023-05-05T14:14:54.307Z,23.97
2023-05-05T14:17:22.016Z,23.87
2023-05-05T14:19:49.456Z,23.81
2023-05-05T14:22:17.226Z,23.76
2023-05-05T14:24:44.873Z,23.79
2023-05-05T14:27:12.418Z,23.75
2023-05-05T14:29:39.979Z,23.70
2023-05-05T14:32:07.852Z,23.69
2023-05-05T14:34:35.458Z,23.67
2023-05-05T14:37:03.265Z,23.61
2023-05-05T14:39:31.345Z,23.54
2023-05-05T14:41:59.085Z,23.53
2023-05-05T14:44:26.657Z,23.49
2023-05-05T14:46:54.275Z,23.51
2023-05-05T14:49:22.030Z,23.42
2023-05-05T14:51:49.626Z,23.40
2023-05-05T14:54:27.514Z,23.36
2023-05-05T14:56:56.420Z,23.32
2023-05-05T14:59:24.163Z,23.29
2023-05-05T15:01:51.756Z,23.23
2023-05-05T15:04:19.368Z,23.14
2023-05-05T15:06:47.108Z,23.00
2023-05-05T15:09:14.662Z,22.90
2023-05-05T15:11:42.362Z,22.93
2023-05-05T15:14:10.025Z,22.91
2023-05-05T15:16:37.926Z,22.97
2023-05-05T15:19:05.616Z,22.96
2023-05-05T15:21:33.783Z,22.87
2023-05-05T15:24:01.334Z,22.91
2023-05-05T15:26:29.944Z,22.89
2023-05-05T15:28:57.400Z,22.84
2023-05-05T15:31:25.144Z,22.81
2023-05-05T15:33:52.760Z,22.77
2023-05-05T15:36:22.880Z,22.76
2023-05-05T15:38:50.503Z,22.72
2023-05-05T15:41:17.962Z,22.62
2023-05-05T15:43:45.742Z,22.57
2023-05-05T15:46:13.481Z,22.52
2023-05-05T15:48:41.105Z,22.36
2023-05-05T15:51:08.620Z,22.43
2023-05-05T15:53:36.414Z,22.42
2023-05-05T15:56:04.030Z,22.31
2023-05-05T15:58:31.610Z,22.24
2023-05-05T16:00:59.248Z,22.14
2023-05-05T16:03:26.902Z,22.07
2023-05-05T16:05:54.777Z,21.98
2023-05-05T16:08:22.542Z,21.92
2023-05-05T16:10:50.105Z,21.80
2023-05-05T16:13:18.308Z,21.67
2023-05-05T16:15:46.593Z,21.61
2023-05-05T16:18:14.461Z,21.55
2023-05-05T16:20:42.057Z,21.45
2023-05-05T16:23:09.762Z,21.31
2023-05-05T16:25:37.576Z,21.31
2023-05-05T16:28:05.363Z,21.24
2023-05-05T16:30:33.192Z,21.21
2023-05-05T16:33:00.840Z,21.15
2023-05-05T16:35:28.512Z,21.01
2023-05-05T16:37:56.608Z,20.94
2023-05-05T16:40:24.227Z,20.91
2023-05-05T16:42:51.709Z,20.84
2023-05-05T16:45:19.417Z,20.73
2023-05-05T16:47:47.181Z,20.73
2023-05-05T16:50:15.668Z,20.67
2023-05-05T16:52:43.328Z,20.59
2023-05-05T16:55:11.236Z,20.59
2023-05-05T16:57:38.918Z,20.51
2023-05-05T17:00:08.050Z,20.51
2023-05-05T17:02:36.178Z,20.42
2023-05-05T17:05:03.953Z,20.32
2023-05-05T17:07:32.198Z,20.26
2023-05-05T17:09:59.797Z,20.25
2023-05-05T17:12:27.505Z,20.18
2023-05-05T17:14:55.120Z,20.15
2023-05-05T17:17:22.772Z,20.12
2023-05-05T17:19:50.500Z,20.02
2023-05-05T17:22:17.980Z,19.99
2023-05-05T17:24:45.728Z,19.89
2023-05-05T17:27:13.402Z,19.85
2023-05-05T17:29:41.603Z,19.79
2023-05-05T17:32:09.707Z,19.76
2023-05-05T17:34:37.439Z,19.73
2023-05-05T17:37:05.089Z,19.63
2023-05-05T17:39:33.241Z,19.63
2023-05-05T17:42:00.779Z,19.56
2023-05-05T17:44:28.427Z,19.49
2023-05-05T17:46:56.094Z,19.55
2023-05-05T17:49:25.530Z,19.69
2023-05-05T17:51:53.151Z,19.69
2023-05-05T17:54:21.273Z,19.80
2023-05-05T17:56:48.835Z,19.50
2023-05-05T17:59:16.369Z,19.32
2023-05-05T18:01:44.073Z,19.43
2023-05-05T18:04:11.653Z,19.56
2023-05-05T18:06:39.478Z,19.66
2023-05-05T18:09:07.509Z,19.75
2023-05-05T18:11:36.221Z,19.65
2023-05-05T18:14:03.918Z,19.51
2023-05-05T18:16:32.026Z,19.41
2023-05-05T18:18:59.661Z,19.31
2023-05-05T18:21:27.184Z,19.12
2023-05-05T18:24:01.675Z,19.14
2023-05-05T18:26:35.632Z,19.11
2023-05-05T18:29:03.790Z,19.06
2023-05-05T18:31:31.542Z,19.01
2023-05-05T18:33:59.230Z,18.98
2023-05-05T18:36:28.044Z,18.94
2023-05-05T18:38:56.181Z,18.85
2023-05-05T18:41:23.808Z,18.79
2023-05-05T18:43:51.321Z,18.77
2023-05-05T18:46:19.758Z,18.74
2023-05-05T18:48:47.740Z,18.71
2023-05-05T18:51:15.483Z,18.65
2023-05-05T18:53:43.082Z,18.62
2023-05-05T18:56:10.771Z,18.62
2023-05-05T18:58:38.301Z,18.55
2023-05-05T19:01:06.544Z,18.48
2023-05-05T19:03:34.490Z,18.48
2023-05-05T19:06:06.180Z,18.61
2023-05-05T19:08:33.781Z,18.45
2023-05-05T19:11:01.417Z,18.39
2023-05-05T19:13:29.059Z,18.28
2023-05-05T19:15:57.828Z,18.20
2023-05-05T19:18:25.867Z,18.21
2023-05-05T19:20:53.620Z,18.16
2023-05-05T19:23:21.483Z,18.11
2023-05-05T19:25:52.857Z,18.14
2023-05-05T19:28:20.632Z,18.00
2023-05-05T19:30:48.980Z,17.95
2023-05-05T19:33:16.831Z,17.91
2023-05-05T19:35:44.900Z,17.90
2023-05-05T19:38:12.552Z,17.74
2023-05-05T19:40:41.277Z,17.65
2023-05-05T19:43:09.365Z,17.56
2023-05-05T19:45:37.053Z,17.53
2023-05-05T19:48:04.859Z,17.47
2023-05-05T19:50:32.550Z,17.49
2023-05-05T19:53:00.206Z,17.45
2023-05-05T19:55:27.971Z,17.43
2023-05-05T19:57:55.789Z,17.35
2023-05-05T20:00:23.564Z,17.40
2023-05-05T20:02:51.360Z,17.40
2023-05-05T20:05:19.183Z,17.37
2023-05-05T20:07:47.388Z,17.34
2023-05-05T20:10:16.128Z,17.30
2023-05-05T20:12:49.399Z,17.36
2023-05-05T20:15:19.654Z,17.25
2023-05-05T20:17:48.083Z,17.13
2023-05-05T20:20:17.837Z,17.08
2023-05-05T20:22:47.384Z,16.97
2023-05-05T20:25:18.209Z,16.89
2023-05-05T20:27:46.052Z,16.90
2023-05-05T20:30:14.216Z,16.88
2023-05-05T20:32:41.845Z,16.88
2023-05-05T20:35:09.858Z,16.79
2023-05-05T20:37:37.487Z,16.77
2023-05-05T20:40:05.372Z,16.76
2023-05-05T20:42:33.240Z,16.74
2023-05-05T20:45:02.256Z,16.72
2023-05-05T20:47:33.848Z,16.84
2023-05-05T20:50:01.647Z,16.92
2023-05-05T20:52:34.692Z,17.03
2023-05-05T20:55:02.296Z,16.93
2023-05-05T20:57:32.197Z,16.88
2023-05-05T20:59:59.962Z,16.81
2023-05-05T21:02:27.773Z,16.78
2023-05-05T21:04:58.611Z,16.79
2023-05-05T21:07:26.949Z,16.90
2023-05-05T21:09:54.488Z,16.85
2023-05-05T21:12:22.002Z,16.55
2023-05-05T21:14:49.541Z,16.44
2023-05-05T21:17:17.094Z,16.37
2023-05-05T21:19:44.736Z,16.25
2023-05-05T21:22:12.308Z,16.15
2023-05-05T21:24:39.872Z,16.01
2023-05-05T21:27:07.418Z,15.81
2023-05-05T21:29:37.981Z,15.74
2023-05-05T21:32:07.370Z,15.80
2023-05-05T21:34:35.211Z,15.83
2023-05-05T21:37:03.195Z,15.91
2023-05-05T21:39:33.821Z,15.97
2023-05-05T21:42:01.727Z,15.84
2023-05-05T21:44:29.339Z,15.85
2023-05-05T21:46:56.915Z,15.74
2023-05-05T21:49:24.641Z,15.65
2023-05-05T21:51:52.175Z,15.54
2023-05-05T21:54:19.729Z,15.44
2023-05-05T21:56:47.361Z,15.29
2023-05-05T21:59:15.868Z,15.16
2023-05-05T22:01:44.687Z,15.06
2023-05-05T22:04:12.287Z,14.93
2023-05-05T22:06:39.950Z,14.93
2023-05-05T22:09:07.853Z,14.93
2023-05-05T22:11:35.367Z,14.99
2023-05-05T22:14:03.096Z,14.98
2023-05-05T22:16:30.752Z,15.10
2023-05-05T22:18:58.522Z,15.21
2023-05-05T22:21:27.796Z,15.47
2023-05-05T22:23:55.421Z,15.54
2023-05-05T22:26:23.053Z,15.58
2023-05-05T22:28:50.816Z,15.59
2023-05-05T22:31:18.383Z,15.66
2023-05-05T22:33:46.165Z,15.63
2023-05-05T22:36:13.737Z,15.66
2023-05-05T22:38:41.298Z,15.69
2023-05-05T22:41:11.181Z,15.64
2023-05-05T22:43:39.161Z,15.38
2023-05-05T22:46:06.780Z,15.22
2023-05-05T22:48:34.291Z,14.95
2023-05-05T22:51:01.970Z,14.80
2023-05-05T22:53:29.532Z,14.74
2023-05-05T22:55:58.530Z,14.69
2023-05-05T22:58:26.286Z,14.64
2023-05-05T23:00:54.091Z,14.68
2023-05-05T23:03:21.881Z,14.61
2023-05-05T23:05:49.411Z,14.55
2023-05-05T23:08:16.980Z,14.45
2023-05-05T23:10:44.557Z,14.36
2023-05-05T23:13:12.013Z,14.14
2023-05-05T23:15:41.300Z,14.01
2023-05-05T23:18:08.901Z,14.22
2023-05-05T23:20:36.498Z,14.27
2023-05-05T23:23:04.956Z,14.35
2023-05-05T23:25:32.499Z,14.46
2023-05-05T23:28:00.152Z,14.49
2023-05-05T23:30:27.836Z,14.52
2023-05-05T23:32:57.482Z,14.55
2023-05-05T23:35:25.171Z,14.61
2023-05-05T23:37:52.719Z,14.51
2023-05-05T23:40:20.320Z,14.55
2023-05-05T23:42:47.938Z,14.57
2023-05-05T23:45:17.530Z,14.63
2023-05-05T23:47:46.322Z,14.56
2023-05-05T23:50:13.971Z,14.56
2023-05-05T23:52:42.096Z,14.57
2023-05-05T23:55:10.430Z,14.65
2023-05-05T23:57:38.434Z,14.64
